createdAt,value
2018-05-04T08:44:48.635Z,2.23
2018-05-04T08:47:17.732Z,2.53
2018-05-04T08:49:46.057Z,2.30
2018-05-04T08:52:14.361Z,2.45
2018-05-04T08:54:42.697Z,2.35
2018-05-04T08:57:11.956Z,2.62
2018-05-04T08:59:40.295Z,2.70
2018-05-04T09:02:08.618Z,2.40
2018-05-04T09:04:36.978Z,2.90
2018-05-04T09:07:05.287Z,2.60
2018-05-04T09:09:33.599Z,2.78
2018-05-04T09:12:02.708Z,3.12
2018-05-04T09:14:31.379Z,2.80
2018-05-04T09:17:00.495Z,3.25
2018-05-04T09:19:30.423Z,4.03
2018-05-04T09:21:58.953Z,3.12
2018-05-04T09:24:28.303Z,3.47
2018-05-04T09:26:57.398Z,3.05
2018-05-04T09:29:25.747Z,3.37
2018-05-04T09:31:54.242Z,2.53
2018-05-04T09:34:22.751Z,2.50
2018-05-04T09:36:52.023Z,2.47
2018-05-04T09:39:21.004Z,2.40
2018-05-04T09:41:49.497Z,2.37
2018-05-04T09:44:17.830Z,2.37
2018-05-04T09:46:46.151Z,2.40
2018-05-04T09:49:14.584Z,2.75
2018-05-04T09:51:42.907Z,2.45
2018-05-04T09:54:12.163Z,2.67
2018-05-04T09:56:41.278Z,2.70
2018-05-04T09:59:09.633Z,2.60
2018-05-04T10:01:38.732Z,2.83
2018-05-04T10:04:07.829Z,2.75
2018-05-04T10:06:36.751Z,2.55
2018-05-04T10:09:05.102Z,2.62
2018-05-04T10:11:33.425Z,2.97
2018-05-04T10:14:01.751Z,2.42
2018-05-04T10:16:30.088Z,2.72
2018-05-04T10:18:58.406Z,2.78
2018-05-04T10:21:26.763Z,3.07
2018-05-04T10:23:55.108Z,2.40
2018-05-04T10:26:24.208Z,2.40
2018-05-04T10:28:53.296Z,2.57
2018-05-04T10:31:22.428Z,2.97
2018-05-04T10:33:50.794Z,2.77
2018-05-04T10:36:19.868Z,2.27
2018-05-04T10:38:48.252Z,2.40
2018-05-04T10:41:16.550Z,2.90
2018-05-04T10:43:45.646Z,2.63
2018-05-04T10:46:14.801Z,2.40
2018-05-04T10:48:43.143Z,2.83
2018-05-04T10:51:12.923Z,3.55
2018-05-04T10:53:41.283Z,2.80
2018-05-04T10:56:09.632Z,2.50
2018-05-04T10:58:37.980Z,2.60
2018-05-04T11:01:07.077Z,2.33
2018-05-04T11:03:35.414Z,2.77
2018-05-04T11:06:03.729Z,2.30
2018-05-04T11:08:32.093Z,2.47
2018-05-04T11:11:00.423Z,1.80
2018-05-04T11:13:29.520Z,1.87
2018-05-04T11:15:58.634Z,2.03
2018-05-04T11:18:27.013Z,1.83
2018-05-04T11:20:55.351Z,1.80
2018-05-04T11:23:24.461Z,1.90
2018-05-04T11:25:52.806Z,1.57
2018-05-04T11:28:21.142Z,2.27
2018-05-04T11:30:50.352Z,1.80
2018-05-04T11:33:20.731Z,1.80
2018-05-04T11:35:49.112Z,1.60
2018-05-04T11:38:17.448Z,1.53
2018-05-04T11:40:45.773Z,1.60
2018-05-04T11:43:14.127Z,1.87
2018-05-04T11:45:42.476Z,1.83
2018-05-04T11:48:12.490Z,1.67
2018-05-04T11:50:41.673Z,1.90
2018-05-04T11:53:10.016Z,1.77
2018-05-04T11:55:38.347Z,1.90
2018-05-04T11:58:07.484Z,1.95
2018-05-04T12:00:35.819Z,1.83
2018-05-04T12:03:04.170Z,2.20
2018-05-04T12:05:32.510Z,2.10
2018-05-04T12:08:01.663Z,2.10
2018-05-04T12:10:30.002Z,1.60
2018-05-04T12:12:58.352Z,2.13
2018-05-04T12:15:26.702Z,2.57
2018-05-04T12:17:55.025Z,1.90
2018-05-04T12:20:24.108Z,1.70
2018-05-04T12:22:53.208Z,1.80
2018-05-04T12:25:21.549Z,1.80
2018-05-04T12:27:49.942Z,2.13
2018-05-04T12:30:19.034Z,1.80
2018-05-04T12:32:47.401Z,1.90
2018-05-04T12:35:17.285Z,2.00
2018-05-04T12:37:46.619Z,1.77
2018-05-04T12:40:16.183Z,1.80
2018-05-04T12:42:44.516Z,1.80
2018-05-04T12:45:12.881Z,1.93
2018-05-04T12:47:42.270Z,2.10
2018-05-04T12:50:11.470Z,1.90
2018-05-04T12:52:39.934Z,1.80
2018-05-04T12:55:08.811Z,1.80
2018-05-04T12:57:37.232Z,1.60
2018-05-04T13:00:06.399Z,1.90
2018-05-04T13:02:34.724Z,1.97
2018-05-04T13:05:04.902Z,1.70
2018-05-04T13:07:33.305Z,1.50
2018-05-04T13:10:01.773Z,1.80
2018-05-04T13:12:30.131Z,2.30
2018-05-04T13:14:58.517Z,1.87
2018-05-04T13:17:26.930Z,1.70
2018-05-04T13:19:55.555Z,1.40
2018-05-04T13:22:24.933Z,1.80
2018-05-04T13:24:54.605Z,1.80
2018-05-04T13:27:24.379Z,1.63
2018-05-04T13:29:52.875Z,1.60
2018-05-04T13:32:21.515Z,1.53
2018-05-04T13:34:49.975Z,1.50
2018-05-04T13:37:19.303Z,1.13
2018-05-04T13:39:47.645Z,1.30
2018-05-04T13:42:16.171Z,1.43
2018-05-04T13:44:44.707Z,1.53
2018-05-04T13:47:12.991Z,1.63
2018-05-04T13:49:41.366Z,1.33
2018-05-04T13:52:09.734Z,1.20
2018-05-04T13:54:38.863Z,1.30
2018-05-04T13:57:07.194Z,1.10
2018-05-04T13:59:35.592Z,1.37
2018-05-04T14:02:04.895Z,1.50
2018-05-04T14:04:34.553Z,1.60
2018-05-04T14:07:02.920Z,1.40
2018-05-04T14:09:31.332Z,1.73
2018-05-04T14:11:59.648Z,1.33
2018-05-04T14:14:30.793Z,1.80
2018-05-04T14:16:59.167Z,1.40
2018-05-04T14:19:29.062Z,1.27
2018-05-04T14:21:57.391Z,1.30
2018-05-04T14:24:26.573Z,1.60
2018-05-04T14:26:55.139Z,1.40
2018-05-04T14:29:23.489Z,1.33
2018-05-04T14:31:51.863Z,1.70
2018-05-04T14:34:20.243Z,1.30
2018-05-04T14:36:48.613Z,1.27
2018-05-04T14:39:17.767Z,1.63
2018-05-04T14:41:46.128Z,1.70
2018-05-04T14:44:14.451Z,1.60
2018-05-04T14:46:42.837Z,1.50
2018-05-04T14:49:11.250Z,1.67
2018-05-04T14:51:39.626Z,1.63
2018-05-04T14:54:07.995Z,1.33
2018-05-04T14:56:38.095Z,1.30
2018-05-04T14:59:07.974Z,1.53
2018-05-04T15:01:36.315Z,1.70
2018-05-04T15:04:06.659Z,1.73
2018-05-04T15:06:34.954Z,2.00
2018-05-04T15:09:03.318Z,1.90
2018-05-04T15:11:32.425Z,1.63
2018-05-04T15:14:00.817Z,1.97
2018-05-04T15:16:29.216Z,1.87
2018-05-04T15:18:57.622Z,1.73
2018-05-04T15:21:26.008Z,1.33
2018-05-04T15:23:54.407Z,2.23
2018-05-04T15:26:22.750Z,2.00
2018-05-04T15:28:51.100Z,1.70
2018-05-04T15:31:19.516Z,1.90
2018-05-04T15:33:47.835Z,1.70
2018-05-04T15:36:16.299Z,1.60
2018-05-04T15:38:44.640Z,2.17
2018-05-04T15:41:13.369Z,1.77
2018-05-04T15:43:41.697Z,1.70
2018-05-04T15:46:11.809Z,1.70
2018-05-04T15:48:46.997Z,2.00
2018-05-04T15:51:21.428Z,1.80
2018-05-04T15:53:49.762Z,1.90
2018-05-04T15:56:18.944Z,1.70
2018-05-04T15:58:48.060Z,3.10
2018-05-04T16:01:17.868Z,1.97
2018-05-04T16:03:47.028Z,2.00
2018-05-04T16:06:16.489Z,1.33
2018-05-04T16:08:45.709Z,1.53
2018-05-04T16:11:15.202Z,1.80
2018-05-04T16:13:44.497Z,1.57
2018-05-04T16:16:12.784Z,1.67
2018-05-04T16:18:42.072Z,1.30
2018-05-04T16:21:11.421Z,1.87
2018-05-04T16:23:39.966Z,1.30
2018-05-04T16:26:10.323Z,1.50
2018-05-04T16:28:38.705Z,1.57
2018-05-04T16:31:07.060Z,1.80
2018-05-04T16:33:36.288Z,1.30
2018-05-04T16:36:04.610Z,1.50
2018-05-04T16:38:32.951Z,1.40
2018-05-04T16:41:02.080Z,1.93
2018-05-04T16:43:30.450Z,1.43
2018-05-04T16:45:59.020Z,1.43
2018-05-04T16:48:33.155Z,1.17
2018-05-04T16:51:01.496Z,1.60
2018-05-04T16:53:30.605Z,1.80
2018-05-04T16:55:59.131Z,1.40
2018-05-04T16:58:27.452Z,1.57
2018-05-04T17:00:56.609Z,1.70
2018-05-04T17:03:25.135Z,2.43
2018-05-04T17:05:54.349Z,1.90
2018-05-04T17:08:22.880Z,1.20
2018-05-04T17:10:51.732Z,1.90
2018-05-04T17:13:20.087Z,1.80
2018-05-04T17:15:50.109Z,1.70
2018-05-04T17:18:18.441Z,1.70
2018-05-04T17:20:46.784Z,1.90
2018-05-04T17:23:15.874Z,1.60
2018-05-04T17:25:44.235Z,2.37
2018-05-04T17:28:12.562Z,2.40
2018-05-04T17:30:40.947Z,2.50
2018-05-04T17:33:09.310Z,2.13
2018-05-04T17:35:38.429Z,2.33
2018-05-04T17:38:06.818Z,1.80
2018-05-04T17:40:35.148Z,1.47
2018-05-04T17:43:03.595Z,1.57
2018-05-04T17:45:32.672Z,1.60
2018-05-04T17:48:01.054Z,1.47
2018-05-04T17:50:29.433Z,1.80
2018-05-04T17:52:57.966Z,1.73
2018-05-04T17:55:26.344Z,1.70
2018-05-04T17:57:54.695Z,1.97
2018-05-04T18:00:23.067Z,1.50
2018-05-04T18:02:51.466Z,1.90
2018-05-04T18:05:19.895Z,1.70
2018-05-04T18:07:48.285Z,1.80
2018-05-04T18:10:16.706Z,1.60
2018-05-04T18:12:45.774Z,1.80
2018-05-04T18:15:14.899Z,1.93
2018-05-04T18:17:43.326Z,1.93
2018-05-04T18:20:11.743Z,1.90
2018-05-04T18:22:40.866Z,1.70
2018-05-04T18:25:09.256Z,2.87
2018-05-04T18:27:38.187Z,2.23
2018-05-04T18:30:07.494Z,2.40
2018-05-04T18:32:35.985Z,1.50
2018-05-04T18:35:04.565Z,1.70
2018-05-04T18:37:32.974Z,1.90
2018-05-04T18:40:02.168Z,1.27
2018-05-04T18:42:31.432Z,1.40
2018-05-04T18:44:59.893Z,1.37
2018-05-04T18:47:29.953Z,1.87
2018-05-04T18:49:59.166Z,2.60
2018-05-04T18:52:27.544Z,1.97
2018-05-04T18:54:56.451Z,1.83
2018-05-04T18:57:24.905Z,1.60
2018-05-04T18:59:53.283Z,1.50
2018-05-04T19:05:27.316Z,1.40
2018-05-04T19:07:57.217Z,2.00
2018-05-04T19:10:25.823Z,1.57
2018-05-04T19:12:54.819Z,1.50
2018-05-04T19:15:23.469Z,1.40
2018-05-04T19:17:52.032Z,1.67
2018-05-04T19:20:21.908Z,1.60
2018-05-04T19:22:50.704Z,1.27
2018-05-04T19:25:19.495Z,1.00
2018-05-04T19:27:48.721Z,1.30
2018-05-04T19:30:17.501Z,1.20
2018-05-04T19:32:47.005Z,1.10
2018-05-04T19:35:16.306Z,1.20
2018-05-04T19:37:45.711Z,1.50
2018-05-04T19:40:15.377Z,1.80
2018-05-04T19:42:43.955Z,0.83
2018-05-04T19:45:12.507Z,0.90
2018-05-04T19:47:41.801Z,2.07
2018-05-04T19:50:10.187Z,10.13
2018-05-04T19:52:39.411Z,8.03
2018-05-04T19:55:08.604Z,6.47
2018-05-04T19:57:36.979Z,5.57
2018-05-04T20:00:05.340Z,3.03
2018-05-04T20:02:33.772Z,3.20
2018-05-04T20:05:02.932Z,2.53
2018-05-04T20:07:31.524Z,1.80
2018-05-04T20:10:01.393Z,1.80
2018-05-04T20:12:29.947Z,1.60
2018-05-04T20:14:58.328Z,2.80
2018-05-04T20:17:27.638Z,1.20
2018-05-04T20:19:56.120Z,1.37
2018-05-04T20:22:26.068Z,1.13
2018-05-04T20:24:54.524Z,1.23
2018-05-04T20:27:23.006Z,1.30
2018-05-04T20:29:51.967Z,1.30
2018-05-04T20:32:20.358Z,1.10
2018-05-04T20:34:48.811Z,0.90
2018-05-04T20:37:17.581Z,1.10
2018-05-04T20:39:46.222Z,1.30
2018-05-04T20:42:14.636Z,1.10
2018-05-04T20:44:42.982Z,1.60
2018-05-04T20:47:11.333Z,1.70
2018-05-04T20:49:39.678Z,1.70
2018-05-04T20:52:08.102Z,1.87
2018-05-04T20:54:36.420Z,2.83
2018-05-04T20:57:04.767Z,1.40
2018-05-04T20:59:33.099Z,1.27
2018-05-04T21:02:02.188Z,1.40
2018-05-04T21:04:30.530Z,1.20
2018-05-04T21:06:58.854Z,1.33
2018-05-04T21:09:27.199Z,3.30
2018-05-04T21:11:55.526Z,2.83
2018-05-04T21:14:24.655Z,1.97
2018-05-04T21:16:53.048Z,1.60
2018-05-04T21:19:21.434Z,1.50
2018-05-04T21:21:49.792Z,1.40
2018-05-04T21:24:18.928Z,1.60
2018-05-04T21:26:47.260Z,2.47
2018-05-04T21:29:16.379Z,2.17
2018-05-04T21:31:45.470Z,1.90
2018-05-04T21:34:14.560Z,1.80
2018-05-04T21:36:43.680Z,1.80
2018-05-04T21:39:13.676Z,1.47
2018-05-04T21:41:42.798Z,1.37
2018-05-04T21:44:12.147Z,1.87
2018-05-04T21:46:41.317Z,1.47
2018-05-04T21:49:09.673Z,1.70
2018-05-04T21:51:38.814Z,1.67
2018-05-04T21:54:07.165Z,1.33
2018-05-04T21:56:36.273Z,1.10
2018-05-04T21:59:05.265Z,0.90
2018-05-04T22:01:33.591Z,1.40
2018-05-04T22:04:01.969Z,1.30
2018-05-04T22:06:30.296Z,1.10
2018-05-04T22:08:59.413Z,1.40
2018-05-04T22:11:27.736Z,1.27
2018-05-04T22:13:57.513Z,1.30
2018-05-04T22:16:26.445Z,1.40
2018-05-04T22:18:55.641Z,1.33
2018-05-04T22:21:24.075Z,1.10
2018-05-04T22:23:53.206Z,1.20
2018-05-04T22:26:21.555Z,1.33
2018-05-04T22:28:50.013Z,1.60
2018-05-04T22:31:18.322Z,1.30
2018-05-04T22:33:47.426Z,1.37
2018-05-04T22:36:16.495Z,1.23
2018-05-04T22:38:44.824Z,1.37
2018-05-04T22:41:13.136Z,1.17
2018-05-04T22:43:41.463Z,1.23
2018-05-04T22:46:10.558Z,1.37
2018-05-04T22:48:39.661Z,1.40
2018-05-04T22:51:08.752Z,1.47
2018-05-04T22:53:37.830Z,1.40
2018-05-04T22:56:06.941Z,1.07
2018-05-04T22:58:35.237Z,1.37
2018-05-04T23:01:04.366Z,1.73
2018-05-04T23:03:32.722Z,1.80
2018-05-04T23:06:01.829Z,1.57
2018-05-04T23:08:30.918Z,1.30
2018-05-04T23:11:00.016Z,1.30
2018-05-04T23:13:29.115Z,1.30
2018-05-04T23:15:58.216Z,1.30
2018-05-04T23:18:27.314Z,1.20
2018-05-04T23:20:55.654Z,1.40
2018-05-04T23:23:23.996Z,1.47
2018-05-04T23:25:52.330Z,1.20
2018-05-04T23:28:21.398Z,1.33
2018-05-04T23:30:49.738Z,1.53
2018-05-04T23:33:18.972Z,1.67
2018-05-04T23:35:47.258Z,1.87
2018-05-04T23:38:15.579Z,2.03
2018-05-04T23:40:43.896Z,2.00
2018-05-04T23:43:12.224Z,2.03
2018-05-04T23:45:40.538Z,2.20
2018-05-04T23:48:10.005Z,2.03
2018-05-04T23:50:38.322Z,1.60
2018-05-04T23:53:09.404Z,1.83
2018-05-04T23:55:37.718Z,2.33
2018-05-04T23:58:06.057Z,2.70
